sensor_id;sensor_type;location;lat;lon;timestamp;pressure;altitude;pressure_sealevel;temperature;humidity
13476;BME280;6810;63.824;20.288;2023-05-20T00:02:40;102944.72;;;9.51;65.56
13476;BME280;6810;63.824;20.288;2023-05-20T00:05:27;102944.78;;;9.48;66.12
13476;BME280;6810;63.824;20.288;2023-05-20T00:08:14;102945.69;;;9.47;66.53
13476;BME280;6810;63.824;20.288;2023-05-20T00:11:01;102951.91;;;9.46;66.59
13476;BME280;6810;63.824;20.288;2023-05-20T00:13:49;102945.75;;;9.44;65.97
13476;BME280;6810;63.824;20.288;2023-05-20T00:16:36;102950.22;;;9.42;67.03
13476;BME280;6810;63.824;20.288;2023-05-20T00:19:23;102956.47;;;9.40;66.48
13476;BME280;6810;63.824;20.288;2023-05-20T00:22:10;102950.34;;;9.35;66.48
13476;BME280;6810;63.824;20.288;2023-05-20T00:24:57;102957.44;;;9.34;66.61
13476;BME280;6810;63.824;20.288;2023-05-20T00:27:44;102942.50;;;9.27;66.71
13476;BME280;6810;63.824;20.288;2023-05-20T00:30:31;102949.59;;;9.27;67.33
13476;BME280;6810;63.824;20.288;2023-05-20T00:33:18;102946.09;;;9.23;67.10
13476;BME280;6810;63.824;20.288;2023-05-20T00:36:06;102959.38;;;9.25;67.57
13476;BME280;6810;63.824;20.288;2023-05-20T00:38:53;102962.03;;;9.25;67.44
13476;BME280;6810;63.824;20.288;2023-05-20T00:41:40;102954.09;;;9.23;67.33
13476;BME280;6810;63.824;20.288;2023-05-20T00:44:27;102940.91;;;9.16;66.99
13476;BME280;6810;63.824;20.288;2023-05-20T00:47:19;102941.75;;;9.19;67.86
13476;BME280;6810;63.824;20.288;2023-05-20T00:50:06;102941.69;;;9.22;67.13
13476;BME280;6810;63.824;20.288;2023-05-20T00:52:54;102937.31;;;9.20;67.06
13476;BME280;6810;63.824;20.288;2023-05-20T00:55:41;102942.59;;;9.21;67.68
13476;BME280;6810;63.824;20.288;2023-05-20T00:58:28;102949.72;;;9.19;67.11
13476;BME280;6810;63.824;20.288;2023-05-20T01:01:16;102924.22;;;9.08;67.18
13476;BME280;6810;63.824;20.288;2023-05-20T01:04:04;102945.41;;;9.14;67.31
13476;BME280;6810;63.824;20.288;2023-05-20T01:06:51;102950.69;;;9.15;67.79
13476;BME280;6810;63.824;20.288;2023-05-20T01:09:39;102947.16;;;9.15;67.52
13476;BME280;6810;63.824;20.288;2023-05-20T01:12:29;102945.44;;;9.12;67.89
13476;BME280;6810;63.824;20.288;2023-05-20T01:15:18;102937.47;;;9.11;67.75
13476;BME280;6810;63.824;20.288;2023-05-20T01:18:07;102928.63;;;9.09;68.07
13476;BME280;6810;63.824;20.288;2023-05-20T01:20:58;102911.97;;;8.96;67.88
13476;BME280;6810;63.824;20.288;2023-05-20T01:23:48;102909.41;;;8.92;67.43
13476;BME280;6810;63.824;20.288;2023-05-20T01:26:35;102933.09;;;9.05;67.37
13476;BME280;6810;63.824;20.288;2023-05-20T01:29:23;102925.19;;;9.02;67.59
13476;BME280;6810;63.824;20.288;2023-05-20T01:32:11;102928.81;;;8.98;67.66
13476;BME280;6810;63.824;20.288;2023-05-20T01:35:01;102901.59;;;8.81;67.69
13476;BME280;6810;63.824;20.288;2023-05-20T01:37:51;102894.72;;;8.69;67.55
13476;BME280;6810;63.824;20.288;2023-05-20T01:40:40;102934.25;;;8.91;67.78
13476;BME280;6810;63.824;20.288;2023-05-20T01:43:28;102936.06;;;8.87;67.54
13476;BME280;6810;63.824;20.288;2023-05-20T01:46:16;102922.88;;;8.81;67.79
13476;BME280;6810;63.824;20.288;2023-05-20T01:49:03;102929.94;;;8.82;68.09
13476;BME280;6810;63.824;20.288;2023-05-20T01:51:50;102937.94;;;8.80;68.77
13476;BME280;6810;63.824;20.288;2023-05-20T01:54:37;102950.41;;;8.78;68.06
13476;BME280;6810;63.824;20.288;2023-05-20T01:57:25;102947.78;;;8.77;68.55
13476;BME280;6810;63.824;20.288;2023-05-20T02:00:12;102912.63;;;8.57;68.50
13476;BME280;6810;63.824;20.288;2023-05-20T02:02:59;102940.75;;;8.70;68.31
13476;BME280;6810;63.824;20.288;2023-05-20T02:05:47;102923.25;;;8.57;68.58
13476;BME280;6810;63.824;20.288;2023-05-20T02:08:34;102935.59;;;8.61;68.52
13476;BME280;6810;63.824;20.288;2023-05-20T02:11:21;102932.00;;;8.63;69.15
13476;BME280;6810;63.824;20.288;2023-05-20T02:14:08;102939.13;;;8.63;68.96
13476;BME280;6810;63.824;20.288;2023-05-20T02:16:56;102939.09;;;8.64;68.84
13476;BME280;6810;63.824;20.288;2023-05-20T02:19:44;102934.66;;;8.63;69.31
13476;BME280;6810;63.824;20.288;2023-05-20T02:22:33;102946.19;;;8.62;69.61
13476;BME280;6810;63.824;20.288;2023-05-20T02:25:20;102910.22;;;8.40;69.95
13476;BME280;6810;63.824;20.288;2023-05-20T02:28:09;102921.69;;;8.42;69.49
13476;BME280;6810;63.824;20.288;2023-05-20T02:30:56;102947.22;;;8.54;69.98
13476;BME280;6810;63.824;20.288;2023-05-20T02:33:44;102936.63;;;8.52;70.15
13476;BME280;6810;63.824;20.288;2023-05-20T02:36:31;102941.94;;;8.52;70.84
13476;BME280;6810;63.824;20.288;2023-05-20T02:39:18;102938.38;;;8.52;70.40
13476;BME280;6810;63.824;20.288;2023-05-20T02:42:06;102950.75;;;8.53;70.41
13476;BME280;6810;63.824;20.288;2023-05-20T02:44:53;102894.47;;;8.24;70.55
13476;BME280;6810;63.824;20.288;2023-05-20T02:47:40;102941.97;;;8.49;70.55
13476;BME280;6810;63.824;20.288;2023-05-20T02:50:31;102932.25;;;8.47;70.97
13476;BME280;6810;63.824;20.288;2023-05-20T02:53:18;102942.84;;;8.48;71.35
13476;BME280;6810;63.824;20.288;2023-05-20T02:56:06;102941.06;;;8.50;71.15
13476;BME280;6810;63.824;20.288;2023-05-20T02:58:53;102940.09;;;8.54;71.15
13476;BME280;6810;63.824;20.288;2023-05-20T03:01:41;102939.22;;;8.57;71.01
13476;BME280;6810;63.824;20.288;2023-05-20T03:04:28;102942.72;;;8.57;71.22
13476;BME280;6810;63.824;20.288;2023-05-20T03:07:15;102930.34;;;8.56;71.15
13476;BME280;6810;63.824;20.288;2023-05-20T03:10:06;102940.97;;;8.56;71.44
13476;BME280;6810;63.824;20.288;2023-05-20T03:12:54;102937.44;;;8.56;71.60
13476;BME280;6810;63.824;20.288;2023-05-20T03:15:41;102935.69;;;8.53;71.88
13476;BME280;6810;63.824;20.288;2023-05-20T03:18:29;102943.66;;;8.55;71.86
13476;BME280;6810;63.824;20.288;2023-05-20T03:21:16;102939.28;;;8.52;71.61
13476;BME280;6810;63.824;20.288;2023-05-20T03:24:03;102943.69;;;8.52;71.98
13476;BME280;6810;63.824;20.288;2023-05-20T03:26:50;102931.47;;;8.40;72.62
13476;BME280;6810;63.824;20.288;2023-05-20T03:29:38;102946.44;;;8.47;72.59
13476;BME280;6810;63.824;20.288;2023-05-20T03:32:25;102948.16;;;8.48;72.53
13476;BME280;6810;63.824;20.288;2023-05-20T03:35:12;102957.03;;;8.49;72.87
13476;BME280;6810;63.824;20.288;2023-05-20T03:38:01;102949.09;;;8.47;72.79
13476;BME280;6810;63.824;20.288;2023-05-20T03:40:49;102952.66;;;8.46;73.21
13476;BME280;6810;63.824;20.288;2023-05-20T03:43:36;102950.81;;;8.50;73.25
13476;BME280;6810;63.824;20.288;2023-05-20T03:46:25;102945.50;;;8.50;73.41
13476;BME280;6810;63.824;20.288;2023-05-20T03:49:12;102945.44;;;8.53;73.35
13476;BME280;6810;63.824;20.288;2023-05-20T03:52:00;102947.19;;;8.57;73.75
13476;BME280;6810;63.824;20.288;2023-05-20T03:54:47;102943.56;;;8.61;73.78
13476;BME280;6810;63.824;20.288;2023-05-20T03:57:35;102943.47;;;8.67;73.54
13476;BME280;6810;63.824;20.288;2023-05-20T04:00:22;102944.28;;;8.72;73.82
13476;BME280;6810;63.824;20.288;2023-05-20T04:03:09;102948.69;;;8.73;73.68
13476;BME280;6810;63.824;20.288;2023-05-20T04:05:56;102927.59;;;8.62;73.58
13476;BME280;6810;63.824;20.288;2023-05-20T04:08:44;102944.22;;;8.76;73.73
13476;BME280;6810;63.824;20.288;2023-05-20T04:11:31;102943.25;;;8.80;73.88
13476;BME280;6810;63.824;20.288;2023-05-20T04:14:18;102936.16;;;8.81;73.72
13476;BME280;6810;63.824;20.288;2023-05-20T04:17:05;102944.13;;;8.82;73.45
13476;BME280;6810;63.824;20.288;2023-05-20T04:19:52;102948.56;;;8.82;73.87
13476;BME280;6810;63.824;20.288;2023-05-20T04:22:40;102947.66;;;8.85;73.72
13476;BME280;6810;63.824;20.288;2023-05-20T04:25:27;102936.25;;;8.76;73.68
13476;BME280;6810;63.824;20.288;2023-05-20T04:28:14;102935.16;;;8.88;73.75
13476;BME280;6810;63.824;20.288;2023-05-20T04:31:02;102938.72;;;8.89;73.77
13476;BME280;6810;63.824;20.288;2023-05-20T04:33:52;102943.94;;;8.95;74.08
13476;BME280;6810;63.824;20.288;2023-05-20T04:36:40;102944.78;;;8.98;74.06
13476;BME280;6810;63.824;20.288;2023-05-20T04:39:28;102943.81;;;9.01;73.87
13476;BME280;6810;63.824;20.288;2023-05-20T04:42:15;102942.03;;;9.03;73.88
13476;BME280;6810;63.824;20.288;2023-05-20T04:45:03;102945.56;;;9.05;73.87
13476;BME280;6810;63.824;20.288;2023-05-20T04:47:51;102955.28;;;9.06;74.10
13476;BME280;6810;63.824;20.288;2023-05-20T04:50:38;102954.38;;;9.07;74.27
13476;BME280;6810;63.824;20.288;2023-05-20T04:53:25;102955.16;;;9.13;74.22
13476;BME280;6810;63.824;20.288;2023-05-20T04:56:12;102955.94;;;9.20;74.31
13476;BME280;6810;63.824;20.288;2023-05-20T04:58:59;102952.28;;;9.25;73.96
13476;BME280;6810;63.824;20.288;2023-05-20T05:01:46;102953.09;;;9.30;74.36
13476;BME280;6810;63.824;20.288;2023-05-20T05:04:34;102954.78;;;9.34;74.35
13476;BME280;6810;63.824;20.288;2023-05-20T05:07:21;102964.47;;;9.40;74.02
13476;BME280;6810;63.824;20.288;2023-05-20T05:10:11;102965.28;;;9.43;73.95
13476;BME280;6810;63.824;20.288;2023-05-20T05:12:58;102947.53;;;9.44;74.38
13476;BME280;6810;63.824;20.288;2023-05-20T05:15:47;102961.63;;;9.50;73.79
13476;BME280;6810;63.824;20.288;2023-05-20T05:18:34;102959.75;;;9.54;74.44
13476;BME280;6810;63.824;20.288;2023-05-20T05:21:22;102949.97;;;9.56;73.54
13476;BME280;6810;63.824;20.288;2023-05-20T05:24:09;102957.00;;;9.58;74.23
13476;BME280;6810;63.824;20.288;2023-05-20T05:26:56;102945.38;;;9.64;73.72
13476;BME280;6810;63.824;20.288;2023-05-20T05:29:43;102935.56;;;9.67;74.35
13476;BME280;6810;63.824;20.288;2023-05-20T05:32:31;102948.59;;;9.81;73.63
13476;BME280;6810;63.824;20.288;2023-05-20T05:35:18;102940.47;;;9.88;74.03
13476;BME280;6810;63.824;20.288;2023-05-20T05:38:06;102954.50;;;9.96;74.27
13476;BME280;6810;63.824;20.288;2023-05-20T05:40:56;102949.13;;;9.99;72.98
13476;BME280;6810;63.824;20.288;2023-05-20T05:43:45;102889.22;;;9.76;73.46
13476;BME280;6810;63.824;20.288;2023-05-20T05:46:32;102936.47;;;10.10;73.97
13476;BME280;6810;63.824;20.288;2023-05-20T05:49:19;102934.53;;;10.18;74.01
13476;BME280;6810;63.824;20.288;2023-05-20T05:52:06;102937.91;;;10.26;73.57
13476;BME280;6810;63.824;20.288;2023-05-20T05:54:54;102927.06;;;10.34;73.77
13476;BME280;6810;63.824;20.288;2023-05-20T05:57:41;102942.06;;;10.39;72.93
13476;BME280;6810;63.824;20.288;2023-05-20T06:00:29;102927.72;;;10.45;73.20
13476;BME280;6810;63.824;20.288;2023-05-20T06:03:16;102902.34;;;10.27;73.10
13476;BME280;6810;63.824;20.288;2023-05-20T06:06:04;102930.06;;;10.59;73.13
13476;BME280;6810;63.824;20.288;2023-05-20T06:08:51;102924.56;;;10.66;72.52
13476;BME280;6810;63.824;20.288;2023-05-20T06:11:38;102907.66;;;10.66;72.54
13476;BME280;6810;63.824;20.288;2023-05-20T06:14:26;102921.59;;;10.78;72.13
13476;BME280;6810;63.824;20.288;2023-05-20T06:17:13;102912.56;;;10.84;72.64
13476;BME280;6810;63.824;20.288;2023-05-20T06:20:01;102916.84;;;10.91;72.35
13476;BME280;6810;63.824;20.288;2023-05-20T06:22:49;102905.19;;;10.95;72.15
13476;BME280;6810;63.824;20.288;2023-05-20T06:25:47;102908.47;;;11.06;72.61
13476;BME280;6810;63.824;20.288;2023-05-20T06:28:35;102911.84;;;11.12;71.92
13476;BME280;6810;63.824;20.288;2023-05-20T06:31:22;102902.69;;;11.22;72.05
13476;BME280;6810;63.824;20.288;2023-05-20T06:34:09;102898.91;;;11.31;72.14
13476;BME280;6810;63.824;20.288;2023-05-20T06:36:56;102899.59;;;11.37;71.47
13476;BME280;6810;63.824;20.288;2023-05-20T06:39:44;102903.84;;;11.46;71.66
13476;BME280;6810;63.824;20.288;2023-05-20T06:42:31;102910.69;;;11.56;71.93
13476;BME280;6810;63.824;20.288;2023-05-20T06:45:26;102913.13;;;11.65;70.78
13476;BME280;6810;63.824;20.288;2023-05-20T06:48:21;102900.44;;;11.73;70.61
13476;BME280;6810;63.824;20.288;2023-05-20T06:51:10;102909.97;;;11.81;70.63
13476;BME280;6810;63.824;20.288;2023-05-20T06:53:58;102921.28;;;11.91;70.96
13476;BME280;6810;63.824;20.288;2023-05-20T06:56:47;102921.91;;;12.00;70.42
13476;BME280;6810;63.824;20.288;2023-05-20T06:59:35;102913.72;;;12.06;70.09
13476;BME280;6810;63.824;20.288;2023-05-20T07:02:22;102890.59;;;12.05;69.73
13476;BME280;6810;63.824;20.288;2023-05-20T07:05:11;102919.44;;;12.23;70.05
13476;BME280;6810;63.824;20.288;2023-05-20T07:07:59;102882.28;;;12.14;69.66
13476;BME280;6810;63.824;20.288;2023-05-20T07:10:47;102910.00;;;12.40;69.23
13476;BME280;6810;63.824;20.288;2023-05-20T07:13:34;102914.16;;;12.50;69.30
13476;BME280;6810;63.824;20.288;2023-05-20T07:16:23;102907.66;;;12.58;68.59
13476;BME280;6810;63.824;20.288;2023-05-20T07:19:11;102905.56;;;12.68;68.90
13476;BME280;6810;63.824;20.288;2023-05-20T07:21:58;102872.84;;;12.58;68.04
13476;BME280;6810;63.824;20.288;2023-05-20T07:24:56;102905.78;;;12.88;68.12
13476;BME280;6810;63.824;20.288;2023-05-20T07:27:44;102918.03;;;12.95;68.46
13476;BME280;6810;63.824;20.288;2023-05-20T07:30:31;102921.47;;;13.00;67.52
13476;BME280;6810;63.824;20.288;2023-05-20T07:33:25;102913.19;;;13.07;66.93
13476;BME280;6810;63.824;20.288;2023-05-20T07:36:12;102912.97;;;13.13;67.66
13476;BME280;6810;63.824;20.288;2023-05-20T07:39:03;102902.94;;;13.20;66.88
13476;BME280;6810;63.824;20.288;2023-05-20T07:41:51;102911.66;;;13.26;67.41
13476;BME280;6810;63.824;20.288;2023-05-20T07:44:41;102913.19;;;13.33;66.88
13476;BME280;6810;63.824;20.288;2023-05-20T07:47:30;102906.13;;;13.31;66.73
13476;BME280;6810;63.824;20.288;2023-05-20T07:50:17;102932.28;;;13.49;65.99
13476;BME280;6810;63.824;20.288;2023-05-20T07:53:05;102932.13;;;13.53;66.23
13476;BME280;6810;63.824;20.288;2023-05-20T07:55:53;102933.75;;;13.57;65.89
13476;BME280;6810;63.824;20.288;2023-05-20T07:58:41;102893.94;;;13.47;66.15
13476;BME280;6810;63.824;20.288;2023-05-20T08:01:31;102933.25;;;13.71;65.75
13476;BME280;6810;63.824;20.288;2023-05-20T08:04:19;102931.25;;;13.77;65.67
13476;BME280;6810;63.824;20.288;2023-05-20T08:07:07;102927.44;;;13.84;65.05
13476;BME280;6810;63.824;20.288;2023-05-20T08:09:54;102925.38;;;13.91;65.43
13476;BME280;6810;63.824;20.288;2023-05-20T08:12:43;102927.78;;;13.98;65.21
13476;BME280;6810;63.824;20.288;2023-05-20T08:15:31;102910.53;;;14.06;64.95
13476;BME280;6810;63.824;20.288;2023-05-20T08:18:18;102913.88;;;14.12;64.42
13476;BME280;6810;63.824;20.288;2023-05-20T08:21:06;102874.97;;;14.01;64.50
13476;BME280;6810;63.824;20.288;2023-05-20T08:23:56;102915.09;;;14.27;64.44
13476;BME280;6810;63.824;20.288;2023-05-20T08:26:44;102908.72;;;14.29;63.92
13476;BME280;6810;63.824;20.288;2023-05-20T08:29:31;102910.16;;;14.39;63.63
13476;BME280;6810;63.824;20.288;2023-05-20T08:32:18;102910.78;;;14.46;63.54
13476;BME280;6810;63.824;20.288;2023-05-20T08:35:06;102897.19;;;14.50;63.16
13476;BME280;6810;63.824;20.288;2023-05-20T08:37:53;102901.38;;;14.57;63.05
13476;BME280;6810;63.824;20.288;2023-05-20T08:40:40;102900.16;;;14.64;63.02
13476;BME280;6810;63.824;20.288;2023-05-20T08:43:30;102890.06;;;14.71;62.62
13476;BME280;6810;63.824;20.288;2023-05-20T08:46:18;102901.44;;;14.77;62.68
13476;BME280;6810;63.824;20.288;2023-05-20T08:49:07;102875.88;;;14.67;62.41
13476;BME280;6810;63.824;20.288;2023-05-20T08:51:54;102896.69;;;14.84;62.27
13476;BME280;6810;63.824;20.288;2023-05-20T08:54:47;102897.16;;;14.93;62.15
13476;BME280;6810;63.824;20.288;2023-05-20T08:57:35;102895.09;;;15.00;61.68
13476;BME280;6810;63.824;20.288;2023-05-20T09:00:23;102915.38;;;15.07;61.52
13476;BME280;6810;63.824;20.288;2023-05-20T09:03:10;102918.63;;;15.15;61.46
13476;BME280;6810;63.824;20.288;2023-05-20T09:06:05;102907.69;;;15.19;61.31
13476;BME280;6810;63.824;20.288;2023-05-20T09:08:53;102912.75;;;15.27;60.96
13476;BME280;6810;63.824;20.288;2023-05-20T09:11:41;102919.56;;;15.35;60.69
13476;BME280;6810;63.824;20.288;2023-05-20T09:14:29;102920.06;;;15.45;60.93
13476;BME280;6810;63.824;20.288;2023-05-20T09:17:16;102919.66;;;15.54;60.54
13476;BME280;6810;63.824;20.288;2023-05-20T09:20:08;102922.03;;;15.62;60.27
13476;BME280;6810;63.824;20.288;2023-05-20T09:22:59;102911.13;;;15.65;60.68
13476;BME280;6810;63.824;20.288;2023-05-20T09:25:49;102922.22;;;15.77;59.81
13476;BME280;6810;63.824;20.288;2023-05-20T09:28:36;102930.88;;;15.84;59.92
13476;BME280;6810;63.824;20.288;2023-05-20T09:31:41;102916.34;;;15.88;60.10
13476;BME280;6810;63.824;20.288;2023-05-20T09:34:29;102918.56;;;15.98;59.42
13476;BME280;6810;63.824;20.288;2023-05-20T09:37:20;102916.03;;;16.14;60.22
13476;BME280;6810;63.824;20.288;2023-05-20T09:40:10;102901.19;;;16.24;59.63
13476;BME280;6810;63.824;20.288;2023-05-20T09:43:05;102912.03;;;16.41;59.46
13476;BME280;6810;63.824;20.288;2023-05-20T09:45:53;102879.66;;;16.42;58.96
13476;BME280;6810;63.824;20.288;2023-05-20T09:48:26;102905.78;;;16.77;58.82
13476;BME280;6810;63.824;20.288;2023-05-20T09:50:54;102899.47;;;16.95;58.07
13476;BME280;6810;63.824;20.288;2023-05-20T09:53:25;102905.88;;;17.11;57.92
13476;BME280;6810;63.824;20.288;2023-05-20T09:55:54;102903.22;;;17.27;57.38
13476;BME280;6810;63.824;20.288;2023-05-20T09:58:22;102902.53;;;17.41;56.36
13476;BME280;6810;63.824;20.288;2023-05-20T10:00:49;102903.75;;;17.52;56.62
13476;BME280;6810;63.824;20.288;2023-05-20T10:03:17;102907.56;;;17.65;55.56
13476;BME280;6810;63.824;20.288;2023-05-20T10:08:42;102913.72;;;17.84;55.21
13476;BME280;6810;63.824;20.288;2023-05-20T10:14:37;102899.72;;;17.93;54.81
13476;BME280;6810;63.824;20.288;2023-05-20T10:19:38;102889.19;;;17.89;53.69
13476;BME280;6810;63.824;20.288;2023-05-20T10:22:09;102903.84;;;18.00;53.62
13476;BME280;6810;63.824;20.288;2023-05-20T10:24:39;102904.88;;;17.98;53.42
13476;BME280;6810;63.824;20.288;2023-05-20T10:27:13;102909.34;;;17.99;53.61
13476;BME280;6810;63.824;20.288;2023-05-20T10:32:09;102898.75;;;17.94;53.85
13476;BME280;6810;63.824;20.288;2023-05-20T10:34:45;102900.28;;;18.00;54.05
13476;BME280;6810;63.824;20.288;2023-05-20T10:37:23;102904.44;;;18.05;53.58
13476;BME280;6810;63.824;20.288;2023-05-20T10:39:51;102902.28;;;18.12;52.63
13476;BME280;6810;63.824;20.288;2023-05-20T10:42:27;102884.38;;;18.11;53.42
13476;BME280;6810;63.824;20.288;2023-05-20T10:44:55;102902.31;;;18.27;52.45
13476;BME280;6810;63.824;20.288;2023-05-20T10:47:22;102905.47;;;18.35;52.52
13476;BME280;6810;63.824;20.288;2023-05-20T10:49:52;102887.38;;;18.37;52.32
13476;BME280;6810;63.824;20.288;2023-05-20T10:52:19;102899.91;;;18.54;52.01
13476;BME280;6810;63.824;20.288;2023-05-20T10:54:57;102909.19;;;18.65;51.49
13476;BME280;6810;63.824;20.288;2023-05-20T10:57:26;102879.28;;;18.68;51.53
13476;BME280;6810;63.824;20.288;2023-05-20T10:59:54;102899.56;;;18.91;50.90
13476;BME280;6810;63.824;20.288;2023-05-20T11:02:22;102906.19;;;19.01;50.25
13476;BME280;6810;63.824;20.288;2023-05-20T11:04:55;102897.63;;;19.09;49.63
13476;BME280;6810;63.824;20.288;2023-05-20T11:07:29;102896.56;;;19.11;49.69
13476;BME280;6810;63.824;20.288;2023-05-20T11:09:57;102904.63;;;19.27;49.87
13476;BME280;6810;63.824;20.288;2023-05-20T11:12:26;102893.41;;;19.34;49.30
13476;BME280;6810;63.824;20.288;2023-05-20T11:15:14;102902.72;;;19.58;48.95
13476;BME280;6810;63.824;20.288;2023-05-20T11:18:02;102895.50;;;19.73;48.15
13476;BME280;6810;63.824;20.288;2023-05-20T11:20:50;102905.88;;;19.80;47.87
13476;BME280;6810;63.824;20.288;2023-05-20T11:23:37;102888.94;;;19.91;48.09
13476;BME280;6810;63.824;20.288;2023-05-20T11:26:24;102896.78;;;20.09;47.10
13476;BME280;6810;63.824;20.288;2023-05-20T11:29:11;102897.88;;;20.21;47.31
13476;BME280;6810;63.824;20.288;2023-05-20T11:31:59;102898.16;;;20.30;46.44
13476;BME280;6810;63.824;20.288;2023-05-20T11:34:50;102876.69;;;20.27;46.67
13476;BME280;6810;63.824;20.288;2023-05-20T11:37:37;102890.72;;;20.34;46.50
13476;BME280;6810;63.824;20.288;2023-05-20T11:40:24;102885.50;;;20.31;45.50
13476;BME280;6810;63.824;20.288;2023-05-20T11:43:18;102890.91;;;20.31;46.22
13476;BME280;6810;63.824;20.288;2023-05-20T11:46:05;102889.72;;;20.35;45.51
13476;BME280;6810;63.824;20.288;2023-05-20T11:48:56;102874.44;;;20.34;45.90
13476;BME280;6810;63.824;20.288;2023-05-20T11:51:43;102866.78;;;20.40;45.74
13476;BME280;6810;63.824;20.288;2023-05-20T11:54:34;102869.97;;;20.47;45.71
13476;BME280;6810;63.824;20.288;2023-05-20T11:57:21;102879.44;;;20.54;44.85
13476;BME280;6810;63.824;20.288;2023-05-20T12:00:09;102870.13;;;20.58;45.19
13476;BME280;6810;63.824;20.288;2023-05-20T12:03:09;102873.00;;;20.69;45.21
13476;BME280;6810;63.824;20.288;2023-05-20T12:05:56;102854.38;;;20.77;44.67
13476;BME280;6810;63.824;20.288;2023-05-20T12:08:43;102867.25;;;20.88;44.14
13476;BME280;6810;63.824;20.288;2023-05-20T12:11:30;102866.94;;;20.92;44.02
13476;BME280;6810;63.824;20.288;2023-05-20T12:14:17;102851.41;;;20.94;44.15
13476;BME280;6810;63.824;20.288;2023-05-20T12:17:04;102857.31;;;21.01;43.80
13476;BME280;6810;63.824;20.288;2023-05-20T12:19:52;102863.41;;;21.04;43.42
13476;BME280;6810;63.824;20.288;2023-05-20T12:22:39;102865.34;;;21.02;43.36
13476;BME280;6810;63.824;20.288;2023-05-20T12:25:26;102854.59;;;21.01;42.96
13476;BME280;6810;63.824;20.288;2023-05-20T12:28:14;102852.78;;;21.01;43.21
13476;BME280;6810;63.824;20.288;2023-05-20T12:31:01;102863.41;;;21.04;43.43
13476;BME280;6810;63.824;20.288;2023-05-20T12:33:49;102861.34;;;21.08;43.09
13476;BME280;6810;63.824;20.288;2023-05-20T12:36:36;102864.63;;;21.13;42.67
13476;BME280;6810;63.824;20.288;2023-05-20T12:39:23;102862.00;;;21.11;42.75
13476;BME280;6810;63.824;20.288;2023-05-20T12:42:10;102864.94;;;21.08;42.56
13476;BME280;6810;63.824;20.288;2023-05-20T12:44:58;102863.22;;;21.07;43.15
13476;BME280;6810;63.824;20.288;2023-05-20T12:47:45;102863.22;;;21.07;42.96
13476;BME280;6810;63.824;20.288;2023-05-20T12:50:32;102857.88;;;21.06;42.47
13476;BME280;6810;63.824;20.288;2023-05-20T12:53:19;102862.94;;;20.98;42.47
13476;BME280;6810;63.824;20.288;2023-05-20T12:56:06;102858.63;;;20.95;42.82
13476;BME280;6810;63.824;20.288;2023-05-20T12:58:54;102853.09;;;20.97;42.99
13476;BME280;6810;63.824;20.288;2023-05-20T13:01:41;102855.09;;;20.93;42.77
13476;BME280;6810;63.824;20.288;2023-05-20T13:04:28;102864.16;;;20.80;41.94
13476;BME280;6810;63.824;20.288;2023-05-20T13:07:15;102867.00;;;20.64;42.63
13476;BME280;6810;63.824;20.288;2023-05-20T13:10:03;102863.19;;;20.54;42.75
13476;BME280;6810;63.824;20.288;2023-05-20T13:12:50;102860.94;;;20.46;43.15
13476;BME280;6810;63.824;20.288;2023-05-20T13:15:37;102863.84;;;20.43;43.18
13476;BME280;6810;63.824;20.288;2023-05-20T13:18:24;102859.25;;;20.31;43.53
13476;BME280;6810;63.824;20.288;2023-05-20T13:21:11;102850.94;;;20.20;43.53
13476;BME280;6810;63.824;20.288;2023-05-20T13:23:59;102857.72;;;20.13;43.90
13476;BME280;6810;63.824;20.288;2023-05-20T13:26:46;102825.59;;;19.93;44.19
13476;BME280;6810;63.824;20.288;2023-05-20T13:29:33;102855.56;;;20.04;44.05
13476;BME280;6810;63.824;20.288;2023-05-20T13:32:20;102861.28;;;20.00;43.93
13476;BME280;6810;63.824;20.288;2023-05-20T13:35:08;102851.53;;;19.97;44.38
13476;BME280;6810;63.824;20.288;2023-05-20T13:37:55;102848.25;;;19.92;43.92
13476;BME280;6810;63.824;20.288;2023-05-20T13:40:42;102852.66;;;19.79;44.06
13476;BME280;6810;63.824;20.288;2023-05-20T13:43:30;102857.63;;;19.73;44.05
13476;BME280;6810;63.824;20.288;2023-05-20T13:46:18;102863.09;;;19.57;43.85
13476;BME280;6810;63.824;20.288;2023-05-20T13:49:05;102859.50;;;19.43;44.46
13476;BME280;6810;63.824;20.288;2023-05-20T13:51:52;102861.91;;;19.33;44.74
13476;BME280;6810;63.824;20.288;2023-05-20T13:54:39;102866.72;;;19.28;44.59
13476;BME280;6810;63.824;20.288;2023-05-20T13:57:26;102852.03;;;19.17;45.50
13476;BME280;6810;63.824;20.288;2023-05-20T14:00:14;102861.81;;;19.19;45.37
13476;BME280;6810;63.824;20.288;2023-05-20T14:03:02;102866.72;;;19.13;44.83
13476;BME280;6810;63.824;20.288;2023-05-20T14:05:49;102869.78;;;19.07;45.25
13476;BME280;6810;63.824;20.288;2023-05-20T14:08:37;102850.81;;;18.92;44.99
13476;BME280;6810;63.824;20.288;2023-05-20T14:11:24;102816.00;;;18.57;45.93
13476;BME280;6810;63.824;20.288;2023-05-20T14:14:11;102867.06;;;18.77;46.28
13476;BME280;6810;63.824;20.288;2023-05-20T14:17:00;102869.94;;;18.74;45.77
13476;BME280;6810;63.824;20.288;2023-05-20T14:19:27;102863.69;;;18.73;46.26
13476;BME280;6810;63.824;20.288;2023-05-20T14:21:55;102860.88;;;18.75;46.05
13476;BME280;6810;63.824;20.288;2023-05-20T14:24:24;102862.72;;;18.74;46.47
13476;BME280;6810;63.824;20.288;2023-05-20T14:26:52;102862.72;;;18.74;46.65
13476;BME280;6810;63.824;20.288;2023-05-20T14:29:19;102864.63;;;18.72;46.84
13476;BME280;6810;63.824;20.288;2023-05-20T14:31:46;102862.19;;;18.68;46.85
13476;BME280;6810;63.824;20.288;2023-05-20T14:34:14;102863.50;;;18.61;46.44
13476;BME280;6810;63.824;20.288;2023-05-20T14:36:41;102858.56;;;18.53;46.48
13476;BME280;6810;63.824;20.288;2023-05-20T14:39:09;102851.91;;;18.43;46.73
13476;BME280;6810;63.824;20.288;2023-05-20T14:41:36;102849.63;;;18.36;47.32
13476;BME280;6810;63.824;20.288;2023-05-20T14:44:04;102845.78;;;18.24;47.32